sensor_id;sensor_type;location;lat;lon;timestamp;P1;durP1;ratioP1;P2;durP2;ratioP2
55732;SDS011;41637;52.364;9.910;2023-10-09T00:02:10;5.38;;;1.33;;
55732;SDS011;41637;52.364;9.910;2023-10-09T00:04:40;4.65;;;1.23;;
55732;SDS011;41637;52.364;9.910;2023-10-09T00:07:09;4.18;;;1.25;;
55732;SDS011;41637;52.364;9.910;2023-10-09T00:09:38;3.40;;;1.17;;
55732;SDS011;41637;52.364;9.910;2023-10-09T00:12:18;2.40;;;1.00;;
55732;SDS011;41637;52.364;9.910;2023-10-09T00:14:50;2.55;;;1.20;;
55732;SDS011;41637;52.364;9.910;2023-10-09T00:17:22;3.45;;;1.30;;
55732;SDS011;41637;52.364;9.910;2023-10-09T00:19:50;3.25;;;1.08;;
55732;SDS011;41637;52.364;9.910;2023-10-09T00:22:26;3.20;;;1.10;;
55732;SDS011;41637;52.364;9.910;2023-10-09T00:24:55;3.67;;;1.30;;
55732;SDS011;41637;52.364;9.910;2023-10-09T00:27:43;2.60;;;1.27;;
55732;SDS011;41637;52.364;9.910;2023-10-09T00:30:13;4.03;;;1.48;;
55732;SDS011;41637;52.364;9.910;2023-10-09T00:32:56;5.47;;;1.50;;
55732;SDS011;41637;52.364;9.910;2023-10-09T00:35:28;3.63;;;1.58;;
55732;SDS011;41637;52.364;9.910;2023-10-09T00:38:04;2.53;;;1.20;;
55732;SDS011;41637;52.364;9.910;2023-10-09T00:40:51;2.72;;;1.10;;
55732;SDS011;41637;52.364;9.910;2023-10-09T00:43:31;2.60;;;1.27;;
55732;SDS011;41637;52.364;9.910;2023-10-09T00:45:59;2.20;;;1.20;;
55732;SDS011;41637;52.364;9.910;2023-10-09T00:48:56;2.38;;;1.15;;
55732;SDS011;41637;52.364;9.910;2023-10-09T00:51:26;2.63;;;1.17;;
55732;SDS011;41637;52.364;9.910;2023-10-09T00:53:57;3.13;;;1.50;;
55732;SDS011;41637;52.364;9.910;2023-10-09T00:56:26;2.63;;;1.10;;
55732;SDS011;41637;52.364;9.910;2023-10-09T00:58:54;3.08;;;1.23;;
55732;SDS011;41637;52.364;9.910;2023-10-09T01:01:28;4.20;;;1.25;;
55732;SDS011;41637;52.364;9.910;2023-10-09T01:04:01;2.53;;;1.10;;
55732;SDS011;41637;52.364;9.910;2023-10-09T01:06:33;2.63;;;1.35;;
55732;SDS011;41637;52.364;9.910;2023-10-09T01:09:02;3.80;;;1.40;;
55732;SDS011;41637;52.364;9.910;2023-10-09T01:11:39;3.53;;;1.13;;
55732;SDS011;41637;52.364;9.910;2023-10-09T01:14:17;4.28;;;1.30;;
55732;SDS011;41637;52.364;9.910;2023-10-09T01:16:47;3.22;;;1.30;;
55732;SDS011;41637;52.364;9.910;2023-10-09T01:19:14;2.93;;;1.10;;
55732;SDS011;41637;52.364;9.910;2023-10-09T01:21:51;2.72;;;1.00;;
55732;SDS011;41637;52.364;9.910;2023-10-09T01:24:18;4.60;;;1.50;;
55732;SDS011;41637;52.364;9.910;2023-10-09T01:26:53;2.47;;;1.15;;
55732;SDS011;41637;52.364;9.910;2023-10-09T01:29:24;3.95;;;1.30;;
55732;SDS011;41637;52.364;9.910;2023-10-09T01:31:54;2.50;;;1.20;;
55732;SDS011;41637;52.364;9.910;2023-10-09T01:34:22;3.53;;;1.10;;
55732;SDS011;41637;52.364;9.910;2023-10-09T01:37:09;5.18;;;1.30;;
55732;SDS011;41637;52.364;9.910;2023-10-09T01:39:47;3.60;;;1.30;;
55732;SDS011;41637;52.364;9.910;2023-10-09T01:42:18;2.47;;;1.23;;
55732;SDS011;41637;52.364;9.910;2023-10-09T01:45:02;3.58;;;1.10;;
55732;SDS011;41637;52.364;9.910;2023-10-09T01:47:52;3.63;;;1.30;;
55732;SDS011;41637;52.364;9.910;2023-10-09T01:50:25;3.33;;;1.25;;
55732;SDS011;41637;52.364;9.910;2023-10-09T01:52:58;2.45;;;1.40;;
55732;SDS011;41637;52.364;9.910;2023-10-09T01:55:31;2.40;;;1.20;;
55732;SDS011;41637;52.364;9.910;2023-10-09T01:58:06;2.95;;;1.27;;
55732;SDS011;41637;52.364;9.910;2023-10-09T02:00:49;2.53;;;1.38;;
55732;SDS011;41637;52.364;9.910;2023-10-09T02:03:24;3.17;;;1.27;;
55732;SDS011;41637;52.364;9.910;2023-10-09T02:05:52;4.00;;;1.52;;
55732;SDS011;41637;52.364;9.910;2023-10-09T02:08:44;3.22;;;1.48;;
55732;SDS011;41637;52.364;9.910;2023-10-09T02:11:16;3.90;;;1.55;;
55732;SDS011;41637;52.364;9.910;2023-10-09T02:14:03;3.53;;;1.70;;
55732;SDS011;41637;52.364;9.910;2023-10-09T02:16:41;3.37;;;1.50;;
55732;SDS011;41637;52.364;9.910;2023-10-09T02:19:09;4.13;;;1.50;;
55732;SDS011;41637;52.364;9.910;2023-10-09T02:21:55;4.77;;;1.53;;
55732;SDS011;41637;52.364;9.910;2023-10-09T02:24:24;6.93;;;2.05;;
55732;SDS011;41637;52.364;9.910;2023-10-09T02:26:55;4.50;;;2.15;;
55732;SDS011;41637;52.364;9.910;2023-10-09T02:29:22;5.03;;;2.23;;
55732;SDS011;41637;52.364;9.910;2023-10-09T02:31:50;6.15;;;2.08;;
55732;SDS011;41637;52.364;9.910;2023-10-09T02:34:28;4.03;;;2.10;;
55732;SDS011;41637;52.364;9.910;2023-10-09T02:36:55;5.55;;;2.20;;
55732;SDS011;41637;52.364;9.910;2023-10-09T02:39:32;3.90;;;2.30;;
55732;SDS011;41637;52.364;9.910;2023-10-09T02:42:09;5.18;;;1.92;;
55732;SDS011;41637;52.364;9.910;2023-10-09T02:44:39;5.63;;;2.10;;
55732;SDS011;41637;52.364;9.910;2023-10-09T02:47:13;3.80;;;2.10;;
55732;SDS011;41637;52.364;9.910;2023-10-09T02:49:47;5.60;;;2.15;;
55732;SDS011;41637;52.364;9.910;2023-10-09T02:52:18;4.88;;;2.20;;
55732;SDS011;41637;52.364;9.910;2023-10-09T02:54:45;4.50;;;2.00;;
55732;SDS011;41637;52.364;9.910;2023-10-09T02:57:24;4.32;;;2.33;;
55732;SDS011;41637;52.364;9.910;2023-10-09T02:59:55;4.90;;;2.50;;
55732;SDS011;41637;52.364;9.910;2023-10-09T03:02:21;5.87;;;2.60;;
55732;SDS011;41637;52.364;9.910;2023-10-09T03:04:50;6.28;;;2.78;;
55732;SDS011;41637;52.364;9.910;2023-10-09T03:07:21;4.80;;;2.38;;
55732;SDS011;41637;52.364;9.910;2023-10-09T03:09:50;5.03;;;2.67;;
55732;SDS011;41637;52.364;9.910;2023-10-09T03:12:16;6.57;;;2.53;;
55732;SDS011;41637;52.364;9.910;2023-10-09T03:14:45;6.30;;;2.50;;
55732;SDS011;41637;52.364;9.910;2023-10-09T03:17:12;5.95;;;2.80;;
55732;SDS011;41637;52.364;9.910;2023-10-09T03:19:39;6.00;;;2.80;;
55732;SDS011;41637;52.364;9.910;2023-10-09T03:22:07;5.57;;;2.40;;
55732;SDS011;41637;52.364;9.910;2023-10-09T03:24:38;6.55;;;2.97;;
55732;SDS011;41637;52.364;9.910;2023-10-09T03:27:16;5.00;;;2.45;;
55732;SDS011;41637;52.364;9.910;2023-10-09T03:29:42;5.82;;;2.60;;
55732;SDS011;41637;52.364;9.910;2023-10-09T03:32:15;5.38;;;2.90;;
55732;SDS011;41637;52.364;9.910;2023-10-09T03:34:42;7.40;;;3.28;;
55732;SDS011;41637;52.364;9.910;2023-10-09T03:37:10;7.60;;;2.85;;
55732;SDS011;41637;52.364;9.910;2023-10-09T03:39:48;7.28;;;3.25;;
55732;SDS011;41637;52.364;9.910;2023-10-09T03:42:18;7.88;;;3.13;;
55732;SDS011;41637;52.364;9.910;2023-10-09T03:44:49;6.57;;;3.60;;
55732;SDS011;41637;52.364;9.910;2023-10-09T03:47:20;6.50;;;3.22;;
55732;SDS011;41637;52.364;9.910;2023-10-09T03:49:51;6.72;;;3.78;;
55732;SDS011;41637;52.364;9.910;2023-10-09T03:52:21;6.18;;;3.55;;
55732;SDS011;41637;52.364;9.910;2023-10-09T03:54:52;9.18;;;3.88;;
55732;SDS011;41637;52.364;9.910;2023-10-09T03:57:19;8.43;;;3.50;;
55732;SDS011;41637;52.364;9.910;2023-10-09T03:59:47;8.35;;;3.83;;
55732;SDS011;41637;52.364;9.910;2023-10-09T04:02:14;8.45;;;3.97;;
55732;SDS011;41637;52.364;9.910;2023-10-09T04:04:43;7.03;;;3.83;;
55732;SDS011;41637;52.364;9.910;2023-10-09T04:07:14;7.35;;;4.03;;
55732;SDS011;41637;52.364;9.910;2023-10-09T04:09:44;9.83;;;4.47;;
55732;SDS011;41637;52.364;9.910;2023-10-09T04:12:36;9.98;;;4.65;;
55732;SDS011;41637;52.364;9.910;2023-10-09T04:15:06;12.25;;;5.70;;
55732;SDS011;41637;52.364;9.910;2023-10-09T04:17:41;11.02;;;5.43;;
55732;SDS011;41637;52.364;9.910;2023-10-09T04:20:10;13.27;;;5.63;;
55732;SDS011;41637;52.364;9.910;2023-10-09T04:22:46;13.13;;;6.80;;
55732;SDS011;41637;52.364;9.910;2023-10-09T04:25:26;10.88;;;5.97;;
55732;SDS011;41637;52.364;9.910;2023-10-09T04:27:55;15.88;;;7.68;;
55732;SDS011;41637;52.364;9.910;2023-10-09T04:30:39;14.98;;;7.93;;
55732;SDS011;41637;52.364;9.910;2023-10-09T04:33:26;17.65;;;8.75;;
55732;SDS011;41637;52.364;9.910;2023-10-09T04:36:07;18.50;;;8.85;;
55732;SDS011;41637;52.364;9.910;2023-10-09T04:38:48;19.17;;;10.40;;
55732;SDS011;41637;52.364;9.910;2023-10-09T04:41:30;22.60;;;12.15;;
55732;SDS011;41637;52.364;9.910;2023-10-09T04:44:18;23.20;;;13.45;;
55732;SDS011;41637;52.364;9.910;2023-10-09T04:46:47;25.67;;;13.80;;
55732;SDS011;41637;52.364;9.910;2023-10-09T04:49:35;23.70;;;13.73;;
55732;SDS011;41637;52.364;9.910;2023-10-09T04:52:28;32.38;;;16.63;;
55732;SDS011;41637;52.364;9.910;2023-10-09T04:54:58;26.05;;;15.68;;
55732;SDS011;41637;52.364;9.910;2023-10-09T04:57:42;31.75;;;17.10;;
55732;SDS011;41637;52.364;9.910;2023-10-09T05:00:11;38.60;;;19.65;;
55732;SDS011;41637;52.364;9.910;2023-10-09T05:03:00;39.42;;;19.88;;
55732;SDS011;41637;52.364;9.910;2023-10-09T05:05:39;45.10;;;21.65;;
55732;SDS011;41637;52.364;9.910;2023-10-09T05:08:12;40.75;;;22.27;;
55732;SDS011;41637;52.364;9.910;2023-10-09T05:11:01;47.63;;;22.35;;
55732;SDS011;41637;52.364;9.910;2023-10-09T05:13:33;42.47;;;22.38;;
55732;SDS011;41637;52.364;9.910;2023-10-09T05:18:55;49.50;;;25.35;;
55732;SDS011;41637;52.364;9.910;2023-10-09T05:21:31;49.08;;;24.27;;
55732;SDS011;41637;52.364;9.910;2023-10-09T05:24:00;46.38;;;25.08;;
55732;SDS011;41637;52.364;9.910;2023-10-09T05:26:57;49.00;;;25.05;;
55732;SDS011;41637;52.364;9.910;2023-10-09T05:29:43;51.10;;;26.20;;
55732;SDS011;41637;52.364;9.910;2023-10-09T05:32:26;48.93;;;25.90;;
55732;SDS011;41637;52.364;9.910;2023-10-09T05:35:01;52.13;;;27.00;;
55732;SDS011;41637;52.364;9.910;2023-10-09T05:40:01;59.25;;;27.13;;
55732;SDS011;41637;52.364;9.910;2023-10-09T05:45:16;49.35;;;25.05;;
55732;SDS011;41637;52.364;9.910;2023-10-09T05:47:45;50.63;;;25.98;;
55732;SDS011;41637;52.364;9.910;2023-10-09T05:50:27;49.38;;;25.40;;
55732;SDS011;41637;52.364;9.910;2023-10-09T05:52:55;54.35;;;26.90;;
55732;SDS011;41637;52.364;9.910;2023-10-09T05:55:23;53.60;;;26.77;;
55732;SDS011;41637;52.364;9.910;2023-10-09T05:57:54;56.60;;;26.80;;
55732;SDS011;41637;52.364;9.910;2023-10-09T06:00:41;51.97;;;25.17;;
55732;SDS011;41637;52.364;9.910;2023-10-09T06:03:27;54.85;;;26.95;;
55732;SDS011;41637;52.364;9.910;2023-10-09T06:06:12;56.47;;;25.83;;
55732;SDS011;41637;52.364;9.910;2023-10-09T06:09:01;47.42;;;24.20;;
55732;SDS011;41637;52.364;9.910;2023-10-09T06:11:42;51.10;;;25.63;;
55732;SDS011;41637;52.364;9.910;2023-10-09T06:14:16;42.13;;;23.10;;
55732;SDS011;41637;52.364;9.910;2023-10-09T06:16:52;54.22;;;26.35;;
55732;SDS011;41637;52.364;9.910;2023-10-09T06:19:48;45.03;;;23.80;;
55732;SDS011;41637;52.364;9.910;2023-10-09T06:22:15;46.50;;;23.25;;
55732;SDS011;41637;52.364;9.910;2023-10-09T06:25:00;48.40;;;23.58;;
55732;SDS011;41637;52.364;9.910;2023-10-09T06:27:35;43.03;;;22.30;;
55732;SDS011;41637;52.364;9.910;2023-10-09T06:30:22;45.53;;;21.47;;
55732;SDS011;41637;52.364;9.910;2023-10-09T06:32:53;38.67;;;20.92;;
55732;SDS011;41637;52.364;9.910;2023-10-09T06:35:29;46.95;;;22.15;;
55732;SDS011;41637;52.364;9.910;2023-10-09T06:37:59;42.60;;;22.57;;
55732;SDS011;41637;52.364;9.910;2023-10-09T06:43:15;43.87;;;22.07;;
55732;SDS011;41637;52.364;9.910;2023-10-09T06:45:48;48.10;;;24.13;;
55732;SDS011;41637;52.364;9.910;2023-10-09T06:48:45;41.25;;;22.65;;
55732;SDS011;41637;52.364;9.910;2023-10-09T06:51:12;47.83;;;24.70;;
55732;SDS011;41637;52.364;9.910;2023-10-09T06:53:52;48.20;;;24.77;;
55732;SDS011;41637;52.364;9.910;2023-10-09T06:56:23;45.85;;;23.50;;
55732;SDS011;41637;52.364;9.910;2023-10-09T06:59:04;46.28;;;23.67;;
55732;SDS011;41637;52.364;9.910;2023-10-09T07:01:51;46.70;;;24.15;;
55732;SDS011;41637;52.364;9.910;2023-10-09T07:04:37;46.40;;;24.67;;
55732;SDS011;41637;52.364;9.910;2023-10-09T07:07:04;44.75;;;22.80;;
55732;SDS011;41637;52.364;9.910;2023-10-09T07:09:36;46.75;;;23.15;;
55732;SDS011;41637;52.364;9.910;2023-10-09T07:12:10;44.75;;;23.15;;
55732;SDS011;41637;52.364;9.910;2023-10-09T07:14:41;45.95;;;23.05;;
55732;SDS011;41637;52.364;9.910;2023-10-09T07:17:08;45.33;;;24.13;;
55732;SDS011;41637;52.364;9.910;2023-10-09T07:19:54;47.47;;;23.00;;
55732;SDS011;41637;52.364;9.910;2023-10-09T07:22:21;45.50;;;24.23;;
55732;SDS011;41637;52.364;9.910;2023-10-09T07:24:52;43.58;;;23.80;;
55732;SDS011;41637;52.364;9.910;2023-10-09T07:27:29;44.85;;;23.15;;
55732;SDS011;41637;52.364;9.910;2023-10-09T07:30:20;47.83;;;23.27;;
55732;SDS011;41637;52.364;9.910;2023-10-09T07:33:03;44.55;;;23.48;;
55732;SDS011;41637;52.364;9.910;2023-10-09T07:35:38;40.42;;;22.85;;
55732;SDS011;41637;52.364;9.910;2023-10-09T07:38:16;41.10;;;22.38;;
55732;SDS011;41637;52.364;9.910;2023-10-09T07:41:02;40.13;;;22.87;;
55732;SDS011;41637;52.364;9.910;2023-10-09T07:43:35;42.83;;;22.10;;
55732;SDS011;41637;52.364;9.910;2023-10-09T07:46:06;41.28;;;21.77;;
55732;SDS011;41637;52.364;9.910;2023-10-09T07:48:53;37.78;;;21.50;;
55732;SDS011;41637;52.364;9.910;2023-10-09T07:51:20;41.72;;;21.83;;
55732;SDS011;41637;52.364;9.910;2023-10-09T07:53:58;42.70;;;21.73;;
55732;SDS011;41637;52.364;9.910;2023-10-09T07:59:09;39.10;;;21.42;;
55732;SDS011;41637;52.364;9.910;2023-10-09T08:01:39;39.20;;;21.73;;
55732;SDS011;41637;52.364;9.910;2023-10-09T08:04:29;36.35;;;20.35;;
55732;SDS011;41637;52.364;9.910;2023-10-09T08:07:07;39.60;;;21.97;;
55732;SDS011;41637;52.364;9.910;2023-10-09T08:09:55;40.72;;;21.48;;
55732;SDS011;41637;52.364;9.910;2023-10-09T08:12:41;40.00;;;22.10;;
55732;SDS011;41637;52.364;9.910;2023-10-09T08:15:11;41.03;;;22.98;;
55732;SDS011;41637;52.364;9.910;2023-10-09T08:17:52;37.90;;;21.57;;
55732;SDS011;41637;52.364;9.910;2023-10-09T08:20:24;35.28;;;21.23;;
55732;SDS011;41637;52.364;9.910;2023-10-09T08:22:53;35.80;;;20.38;;
55732;SDS011;41637;52.364;9.910;2023-10-09T08:25:24;34.15;;;20.40;;
55732;SDS011;41637;52.364;9.910;2023-10-09T08:27:57;34.05;;;18.98;;
55732;SDS011;41637;52.364;9.910;2023-10-09T08:30:51;32.92;;;18.83;;
55732;SDS011;41637;52.364;9.910;2023-10-09T08:33:20;31.63;;;18.48;;
55732;SDS011;41637;52.364;9.910;2023-10-09T08:35:56;32.43;;;18.70;;
55732;SDS011;41637;52.364;9.910;2023-10-09T08:38:32;32.72;;;19.38;;
55732;SDS011;41637;52.364;9.910;2023-10-09T08:41:09;30.70;;;18.08;;
55732;SDS011;41637;52.364;9.910;2023-10-09T08:43:50;32.60;;;18.20;;
55732;SDS011;41637;52.364;9.910;2023-10-09T08:46:27;28.60;;;17.88;;
55732;SDS011;41637;52.364;9.910;2023-10-09T08:48:55;31.40;;;17.45;;
55732;SDS011;41637;52.364;9.910;2023-10-09T08:51:26;27.27;;;16.60;;
55732;SDS011;41637;52.364;9.910;2023-10-09T08:53:54;25.70;;;15.88;;
55732;SDS011;41637;52.364;9.910;2023-10-09T08:56:22;27.23;;;16.60;;
55732;SDS011;41637;52.364;9.910;2023-10-09T08:58:53;24.33;;;16.25;;
55732;SDS011;41637;52.364;9.910;2023-10-09T09:01:23;29.30;;;17.90;;
55732;SDS011;41637;52.364;9.910;2023-10-09T09:03:52;27.50;;;16.35;;
55732;SDS011;41637;52.364;9.910;2023-10-09T09:06:22;23.27;;;15.52;;
55732;SDS011;41637;52.364;9.910;2023-10-09T09:08:50;29.27;;;16.98;;
55732;SDS011;41637;52.364;9.910;2023-10-09T09:11:26;27.73;;;17.40;;
55732;SDS011;41637;52.364;9.910;2023-10-09T09:14:00;27.02;;;16.88;;
55732;SDS011;41637;52.364;9.910;2023-10-09T09:16:40;26.73;;;15.65;;
55732;SDS011;41637;52.364;9.910;2023-10-09T09:19:11;25.40;;;16.27;;
55732;SDS011;41637;52.364;9.910;2023-10-09T09:21:48;25.73;;;16.58;;
55732;SDS011;41637;52.364;9.910;2023-10-09T09:24:21;22.27;;;15.15;;
55732;SDS011;41637;52.364;9.910;2023-10-09T09:26:49;19.17;;;12.77;;
55732;SDS011;41637;52.364;9.910;2023-10-09T09:32:03;21.60;;;13.20;;
55732;SDS011;41637;52.364;9.910;2023-10-09T09:34:45;23.45;;;12.93;;
55732;SDS011;41637;52.364;9.910;2023-10-09T09:37:28;19.75;;;13.38;;
55732;SDS011;41637;52.364;9.910;2023-10-09T09:40:00;20.73;;;13.07;;
55732;SDS011;41637;52.364;9.910;2023-10-09T09:42:37;21.30;;;12.98;;
55732;SDS011;41637;52.364;9.910;2023-10-09T09:45:11;21.33;;;13.85;;
55732;SDS011;41637;52.364;9.910;2023-10-09T09:47:39;26.17;;;14.48;;
55732;SDS011;41637;52.364;9.910;2023-10-09T09:50:13;27.90;;;15.30;;
55732;SDS011;41637;52.364;9.910;2023-10-09T09:52:51;24.48;;;15.10;;
55732;SDS011;41637;52.364;9.910;2023-10-09T09:55:33;25.05;;;15.98;;
55732;SDS011;41637;52.364;9.910;2023-10-09T09:58:02;29.63;;;16.08;;
55732;SDS011;41637;52.364;9.910;2023-10-09T10:00:34;26.77;;;16.10;;
55732;SDS011;41637;52.364;9.910;2023-10-09T10:03:18;29.92;;;16.98;;
55732;SDS011;41637;52.364;9.910;2023-10-09T10:05:48;30.55;;;17.40;;
55732;SDS011;41637;52.364;9.910;2023-10-09T10:08:17;34.70;;;18.20;;
55732;SDS011;41637;52.364;9.910;2023-10-09T10:10:46;29.40;;;16.47;;
55732;SDS011;41637;52.364;9.910;2023-10-09T10:13:16;28.98;;;17.73;;
55732;SDS011;41637;52.364;9.910;2023-10-09T10:16:04;27.85;;;17.00;;
55732;SDS011;41637;52.364;9.910;2023-10-09T10:21:34;30.35;;;17.90;;
55732;SDS011;41637;52.364;9.910;2023-10-09T10:29:36;28.33;;;16.58;;
55732;SDS011;41637;52.364;9.910;2023-10-09T10:32:05;30.90;;;18.58;;
55732;SDS011;41637;52.364;9.910;2023-10-09T10:35:09;30.45;;;17.98;;
55732;SDS011;41637;52.364;9.910;2023-10-09T10:37:36;29.45;;;17.15;;
55732;SDS011;41637;52.364;9.910;2023-10-09T10:40:10;30.17;;;18.50;;
55732;SDS011;41637;52.364;9.910;2023-10-09T10:42:47;28.52;;;17.40;;
55732;SDS011;41637;52.364;9.910;2023-10-09T10:45:34;26.80;;;16.85;;
55732;SDS011;41637;52.364;9.910;2023-10-09T10:48:02;26.98;;;16.20;;
55732;SDS011;41637;52.364;9.910;2023-10-09T10:50:34;29.17;;;17.05;;
55732;SDS011;41637;52.364;9.910;2023-10-09T10:53:09;27.30;;;16.25;;
55732;SDS011;41637;52.364;9.910;2023-10-09T10:55:53;23.27;;;15.70;;
55732;SDS011;41637;52.364;9.910;2023-10-09T10:58:40;22.27;;;14.10;;
55732;SDS011;41637;52.364;9.910;2023-10-09T11:01:35;23.65;;;14.15;;
55732;SDS011;41637;52.364;9.910;2023-10-09T11:04:25;22.58;;;14.68;;
55732;SDS011;41637;52.364;9.910;2023-10-09T11:07:00;20.23;;;14.05;;
55732;SDS011;41637;52.364;9.910;2023-10-09T11:15:12;19.23;;;13.82;;
55732;SDS011;41637;52.364;9.910;2023-10-09T11:18:06;20.05;;;12.93;;
55732;SDS011;41637;52.364;9.910;2023-10-09T11:20:34;21.63;;;14.52;;
55732;SDS011;41637;52.364;9.910;2023-10-09T11:23:03;20.88;;;14.65;;
55732;SDS011;41637;52.364;9.910;2023-10-09T11:25:37;19.10;;;13.60;;
55732;SDS011;41637;52.364;9.910;2023-10-09T11:28:16;20.92;;;14.70;;
55732;SDS011;41637;52.364;9.910;2023-10-09T11:31:06;21.88;;;14.75;;
55732;SDS011;41637;52.364;9.910;2023-10-09T11:33:46;20.38;;;14.02;;
55732;SDS011;41637;52.364;9.910;2023-10-09T11:36:18;19.92;;;14.20;;
55732;SDS011;41637;52.364;9.910;2023-10-09T11:38:59;21.45;;;14.55;;
55732;SDS011;41637;52.364;9.910;2023-10-09T11:41:45;21.50;;;14.65;;
55732;SDS011;41637;52.364;9.910;2023-10-09T11:44:16;19.52;;;14.73;;
55732;SDS011;41637;52.364;9.910;2023-10-09T11:46:57;20.85;;;15.20;;
55732;SDS011;41637;52.364;9.910;2023-10-09T11:49:53;20.80;;;14.45;;
55732;SDS011;41637;52.364;9.910;2023-10-09T11:52:28;21.38;;;15.57;;
55732;SDS011;41637;52.364;9.910;2023-10-09T11:54:58;22.43;;;16.47;;
55732;SDS011;41637;52.364;9.910;2023-10-09T11:57:25;21.63;;;16.60;;
55732;SDS011;41637;52.364;9.910;2023-10-09T11:59:57;23.75;;;16.98;;
55732;SDS011;41637;52.364;9.910;2023-10-09T12:02:29;22.48;;;16.50;;
55732;SDS011;41637;52.364;9.910;2023-10-09T12:04:58;25.67;;;18.23;;
55732;SDS011;41637;52.364;9.910;2023-10-09T12:07:24;23.77;;;16.95;;
55732;SDS011;41637;52.364;9.910;2023-10-09T12:09:51;21.17;;;16.40;;
55732;SDS011;41637;52.364;9.910;2023-10-09T12:12:23;21.40;;;15.25;;
55732;SDS011;41637;52.364;9.910;2023-10-09T12:14:53;23.08;;;16.75;;
55732;SDS011;41637;52.364;9.910;2023-10-09T12:17:20;24.03;;;17.27;;
55732;SDS011;41637;52.364;9.910;2023-10-09T12:19:51;21.58;;;16.70;;
55732;SDS011;41637;52.364;9.910;2023-10-09T12:22:18;22.13;;;16.02;;
55732;SDS011;41637;52.364;9.910;2023-10-09T12:24:48;21.05;;;15.38;;
55732;SDS011;41637;52.364;9.910;2023-10-09T12:27:14;22.33;;;15.48;;
55732;SDS011;41637;52.364;9.910;2023-10-09T12:29:46;20.80;;;16.50;;
55732;SDS011;41637;52.364;9.910;2023-10-09T12:32:16;23.33;;;16.48;;
55732;SDS011;41637;52.364;9.910;2023-10-09T12:34:46;22.98;;;17.00;;
55732;SDS011;41637;52.364;9.910;2023-10-09T12:37:17;22.00;;;16.37;;
55732;SDS011;41637;52.364;9.910;2023-10-09T12:39:47;19.75;;;15.00;;
55732;SDS011;41637;52.364;9.910;2023-10-09T12:42:15;24.63;;;16.90;;
55732;SDS011;41637;52.364;9.910;2023-10-09T12:44:43;22.00;;;17.48;;
55732;SDS011;41637;52.364;9.910;2023-10-09T12:47:11;21.27;;;16.33;;
55732;SDS011;41637;52.364;9.910;2023-10-09T12:49:38;23.17;;;16.83;;
55732;SDS011;41637;52.364;9.910;2023-10-09T12:52:08;26.73;;;18.70;;
55732;SDS011;41637;52.364;9.910;2023-10-09T12:54:43;24.38;;;17.13;;
55732;SDS011;41637;52.364;9.910;2023-10-09T12:57:13;23.80;;;16.42;;
55732;SDS011;41637;52.364;9.910;2023-10-09T12:59:41;22.35;;;17.08;;
55732;SDS011;41637;52.364;9.910;2023-10-09T13:02:15;24.35;;;17.17;;
55732;SDS011;41637;52.364;9.910;2023-10-09T13:04:56;21.07;;;15.60;;
55732;SDS011;41637;52.364;9.910;2023-10-09T13:07:24;21.92;;;16.10;;
55732;SDS011;41637;52.364;9.910;2023-10-09T13:09:52;22.35;;;16.67;;
55732;SDS011;41637;52.364;9.910;2023-10-09T13:12:38;18.27;;;15.40;;
55732;SDS011;41637;52.364;9.910;2023-10-09T13:15:08;21.48;;;15.10;;
55732;SDS011;41637;52.364;9.910;2023-10-09T13:17:36;17.80;;;14.50;;
55732;SDS011;41637;52.364;9.910;2023-10-09T13:20:04;18.48;;;12.52;;
55732;SDS011;41637;52.364;9.910;2023-10-09T13:22:39;16.90;;;13.43;;
55732;SDS011;41637;52.364;9.910;2023-10-09T13:25:10;15.98;;;12.63;;
55732;SDS011;41637;52.364;9.910;2023-10-09T13:28:00;16.17;;;12.90;;
55732;SDS011;41637;52.364;9.910;2023-10-09T13:30:31;15.50;;;12.57;;
55732;SDS011;41637;52.364;9.910;2023-10-09T13:33:06;17.60;;;13.68;;
55732;SDS011;41637;52.364;9.910;2023-10-09T13:35:35;17.80;;;12.15;;
55732;SDS011;41637;52.364;9.910;2023-10-09T13:38:14;14.18;;;12.07;;
55732;SDS011;41637;52.364;9.910;2023-10-09T13:40:41;16.58;;;12.80;;
55732;SDS011;41637;52.364;9.910;2023-10-09T13:43:08;17.00;;;12.90;;
55732;SDS011;41637;52.364;9.910;2023-10-09T13:45:43;14.32;;;11.70;;
55732;SDS011;41637;52.364;9.910;2023-10-09T13:48:17;15.30;;;12.80;;
55732;SDS011;41637;52.364;9.910;2023-10-09T13:50:44;18.35;;;13.88;;
55732;SDS011;41637;52.364;9.910;2023-10-09T13:53:11;15.82;;;12.95;;
55732;SDS011;41637;52.364;9.910;2023-10-09T13:55:39;17.43;;;13.90;;
55732;SDS011;41637;52.364;9.910;2023-10-09T13:58:10;17.42;;;14.05;;
55732;SDS011;41637;52.364;9.910;2023-10-09T14:00:40;16.93;;;14.00;;
55732;SDS011;41637;52.364;9.910;2023-10-09T14:03:12;16.85;;;13.15;;
55732;SDS011;41637;52.364;9.910;2023-10-09T14:05:40;14.77;;;12.57;;
55732;SDS011;41637;52.364;9.910;2023-10-09T14:08:21;14.70;;;12.52;;
55732;SDS011;41637;52.364;9.910;2023-10-09T14:10:55;14.20;;;12.07;;
55732;SDS011;41637;52.364;9.910;2023-10-09T14:13:22;14.77;;;12.57;;
55732;SDS011;41637;52.364;9.910;2023-10-09T14:15:57;15.45;;;12.60;;
55732;SDS011;41637;52.364;9.910;2023-10-09T14:18:28;14.93;;;12.77;;
55732;SDS011;41637;52.364;9.910;2023-10-09T14:21:00;15.70;;;12.60;;
55732;SDS011;41637;52.364;9.910;2023-10-09T14:23:31;14.40;;;12.40;;
55732;SDS011;41637;52.364;9.910;2023-10-09T14:26:01;13.88;;;12.38;;
55732;SDS011;41637;52.364;9.910;2023-10-09T14:28:28;14.10;;;12.18;;
55732;SDS011;41637;52.364;9.910;2023-10-09T14:30:55;14.67;;;13.07;;
55732;SDS011;41637;52.364;9.910;2023-10-09T14:33:26;15.52;;;13.65;;
55732;SDS011;41637;52.364;9.910;2023-10-09T14:35:54;15.13;;;13.15;;
55732;SDS011;41637;52.364;9.910;2023-10-09T14:38:21;14.30;;;12.00;;
55732;SDS011;41637;52.364;9.910;2023-10-09T14:40:53;15.93;;;13.00;;
55732;SDS011;41637;52.364;9.910;2023-10-09T14:43:26;14.90;;;12.15;;
55732;SDS011;41637;52.364;9.910;2023-10-09T14:46:00;15.88;;;11.48;;
55732;SDS011;41637;52.364;9.910;2023-10-09T14:48:27;15.65;;;11.88;;
55732;SDS011;41637;52.364;9.910;2023-10-09T14:50:55;13.73;;;11.63;;
55732;SDS011;41637;52.364;9.910;2023-10-09T14:53:31;13.65;;;11.50;;
55732;SDS011;41637;52.364;9.910;2023-10-09T14:56:01;12.50;;;10.77;;
55732;SDS011;41637;52.364;9.910;2023-10-09T14:58:30;14.30;;;12.32;;
55732;SDS011;41637;52.364;9.910;2023-10-09T15:01:07;15.00;;;12.60;;
55732;SDS011;41637;52.364;9.910;2023-10-09T15:03:36;16.60;;;12.85;;
55732;SDS011;41637;52.364;9.910;2023-10-09T15:06:06;15.43;;;12.20;;
55732;SDS011;41637;52.364;9.910;2023-10-09T15:08:37;14.90;;;11.80;;
55732;SDS011;41637;52.364;9.910;2023-10-09T15:11:04;15.27;;;12.10;;
55732;SDS011;41637;52.364;9.910;2023-10-09T15:13:32;15.15;;;13.05;;
55732;SDS011;41637;52.364;9.910;2023-10-09T15:15:59;17.30;;;13.15;;
55732;SDS011;41637;52.364;9.910;2023-10-09T15:18:30;19.08;;;13.48;;
55732;SDS011;41637;52.364;9.910;2023-10-09T15:20:59;17.85;;;13.57;;
55732;SDS011;41637;52.364;9.910;2023-10-09T15:23:26;15.45;;;11.82;;
55732;SDS011;41637;52.364;9.910;2023-10-09T15:25:53;18.35;;;14.73;;
55732;SDS011;41637;52.364;9.910;2023-10-09T15:28:21;19.73;;;14.40;;
55732;SDS011;41637;52.364;9.910;2023-10-09T15:30:48;15.60;;;12.77;;
55732;SDS011;41637;52.364;9.910;2023-10-09T15:33:15;17.35;;;13.40;;
55732;SDS011;41637;52.364;9.910;2023-10-09T15:35:43;16.85;;;13.82;;
55732;SDS011;41637;52.364;9.910;2023-10-09T15:38:13;17.45;;;12.57;;
55732;SDS011;41637;52.364;9.910;2023-10-09T15:40:40;17.43;;;13.43;;